createdAt,value
2023-05-17T00:00:07.008Z,22.70
2023-05-17T00:02:08.655Z,22.70
2023-05-17T00:04:10.504Z,22.70
2023-05-17T00:06:12.248Z,22.70
2023-05-17T00:08:13.953Z,22.70
2023-05-17T00:10:15.657Z,22.70
2023-05-17T00:12:17.329Z,22.70
2023-05-17T00:14:18.881Z,22.70
2023-05-17T00:16:20.529Z,22.70
2023-05-17T00:18:22.258Z,22.70
2023-05-17T00:20:23.902Z,22.70
2023-05-17T00:22:25.771Z,22.70
2023-05-17T00:24:27.394Z,22.70
2023-05-17T00:26:28.966Z,22.70
2023-05-17T00:28:30.734Z,22.70
2023-05-17T00:30:32.788Z,22.70
2023-05-17T00:32:34.412Z,22.70
2023-05-17T00:34:36.084Z,22.70
2023-05-17T00:36:37.643Z,22.70
2023-05-17T00:38:39.491Z,22.60
2023-05-17T00:40:41.225Z,22.70
2023-05-17T00:42:42.844Z,22.70
2023-05-17T00:44:44.527Z,22.60
2023-05-17T00:46:46.852Z,22.60
2023-05-17T00:48:48.539Z,22.70
2023-05-17T00:50:50.496Z,22.70
2023-05-17T00:52:52.095Z,22.60
2023-05-17T00:54:53.678Z,22.70
2023-05-17T00:56:57.062Z,22.60
2023-05-17T00:58:58.729Z,22.60
2023-05-17T01:01:01.432Z,22.60
2023-05-17T01:03:03.372Z,22.60
2023-05-17T01:05:05.415Z,22.60
2023-05-17T01:07:07.136Z,22.60
2023-05-17T01:09:09.110Z,22.60
2023-05-17T01:11:18.658Z,22.60
2023-05-17T01:13:24.427Z,22.60
2023-05-17T01:15:27.956Z,22.60
2023-05-17T01:17:36.157Z,22.60
2023-05-17T01:19:38.000Z,22.60
2023-05-17T01:21:45.535Z,22.60
2023-05-17T01:24:03.518Z,22.60
2023-05-17T01:26:05.403Z,22.60
2023-05-17T01:28:08.056Z,22.60
2023-05-17T01:30:11.997Z,22.60
2023-05-17T01:32:14.474Z,22.60
2023-05-17T01:34:24.184Z,22.50
2023-05-17T01:36:27.287Z,22.50
2023-05-17T01:38:28.922Z,22.60
2023-05-17T01:40:32.988Z,22.60
2023-05-17T01:42:35.215Z,22.50
2023-05-17T01:44:50.129Z,22.50
2023-05-17T01:46:55.754Z,22.50
2023-05-17T01:49:06.190Z,22.50
2023-05-17T01:51:09.302Z,22.50
2023-05-17T01:53:13.665Z,22.50
2023-05-17T01:55:18.038Z,22.50
2023-05-17T01:57:20.527Z,22.50
2023-05-17T01:59:25.090Z,22.50
2023-05-17T02:01:28.683Z,22.50
2023-05-17T02:03:30.484Z,22.50
2023-05-17T02:05:32.161Z,22.50
2023-05-17T02:07:33.806Z,22.40
2023-05-17T02:09:35.497Z,22.50
2023-05-17T02:11:37.345Z,22.40
2023-05-17T02:13:38.977Z,22.50
2023-05-17T02:15:40.623Z,22.40
2023-05-17T02:17:42.475Z,22.40
2023-05-17T02:19:44.255Z,22.40
2023-05-17T02:21:45.921Z,22.40
2023-05-17T02:23:47.536Z,22.40
2023-05-17T02:25:49.150Z,22.40
2023-05-17T02:27:50.823Z,22.40
2023-05-17T02:29:52.505Z,22.40
2023-05-17T02:31:54.097Z,22.40
2023-05-17T02:33:55.884Z,22.40
2023-05-17T02:35:57.569Z,22.40
2023-05-17T02:37:59.382Z,22.40
2023-05-17T02:40:00.961Z,22.40
2023-05-17T02:42:02.676Z,22.30
2023-05-17T02:44:04.381Z,22.30
2023-05-17T02:46:06.401Z,22.40
2023-05-17T02:48:08.013Z,22.30
2023-05-17T02:50:09.859Z,22.30
2023-05-17T02:52:11.496Z,22.30
2023-05-17T02:54:13.115Z,22.30
2023-05-17T02:56:14.731Z,22.30
2023-05-17T02:58:16.332Z,22.30
2023-05-17T03:00:18.132Z,22.30
2023-05-17T10:42:14.402Z,22.90
2023-05-17T10:44:17.508Z,22.90
2023-05-17T10:46:21.287Z,22.90
2023-05-17T10:48:23.739Z,22.90
2023-05-17T10:50:26.821Z,22.90
2023-05-17T10:52:28.686Z,22.90
2023-05-17T10:54:36.788Z,22.90
2023-05-17T10:56:42.571Z,23.00
2023-05-17T10:58:44.354Z,23.00
2023-05-17T11:00:50.108Z,23.00
2023-05-17T11:02:51.877Z,23.00
2023-05-17T11:04:56.087Z,23.10
2023-05-17T11:07:22.178Z,23.10
2023-05-17T11:09:24.290Z,23.10
2023-05-17T11:11:26.349Z,23.10
2023-05-17T11:13:28.227Z,23.10
2023-05-17T11:15:33.087Z,23.10
2023-05-17T11:17:35.800Z,23.10
2023-05-17T11:19:37.770Z,23.10
2023-05-17T11:21:46.501Z,23.10
2023-05-17T11:23:49.079Z,23.20
2023-05-17T11:25:50.740Z,23.20
2023-05-17T11:27:52.335Z,23.20
2023-05-17T11:30:00.254Z,23.20
2023-05-17T11:32:06.680Z,23.20
2023-05-17T11:34:08.391Z,23.20
2023-05-17T11:36:15.329Z,23.20
2023-05-17T11:38:18.480Z,23.20
2023-05-17T11:40:28.193Z,23.20
2023-05-17T11:42:30.145Z,23.20
2023-05-17T11:44:35.097Z,23.10
2023-05-17T11:46:37.737Z,23.20
2023-05-17T11:48:39.463Z,23.20
2023-05-17T11:50:42.094Z,23.20
2023-05-17T11:52:43.864Z,23.10
2023-05-17T11:54:46.523Z,23.10
2023-05-17T11:56:49.358Z,23.10
2023-05-17T11:58:52.074Z,23.10
2023-05-17T12:00:54.500Z,23.10
2023-05-17T12:02:56.227Z,23.10
2023-05-17T12:04:58.357Z,23.10
2023-05-17T12:07:01.260Z,23.10
2023-05-17T12:09:03.431Z,23.10
2023-05-17T12:11:05.915Z,23.10
2023-05-17T12:13:07.618Z,23.10
2023-05-17T12:15:10.762Z,23.10
2023-05-17T12:17:15.587Z,23.10
2023-05-17T12:19:21.114Z,23.10
2023-05-17T12:21:22.843Z,23.10
2023-05-17T12:23:31.638Z,23.10
2023-05-17T12:25:33.461Z,23.10
2023-05-17T12:27:35.039Z,23.10
2023-05-17T12:29:36.660Z,23.10
2023-05-17T12:31:40.860Z,23.10
2023-05-17T12:33:43.306Z,23.10
2023-05-17T12:35:45.239Z,23.10
2023-05-17T12:37:47.069Z,23.10
2023-05-17T12:39:48.784Z,23.10
2023-05-17T12:41:51.737Z,23.10
2023-05-17T12:44:06.060Z,23.10
2023-05-17T12:46:18.860Z,23.10
2023-05-17T12:48:24.027Z,23.10
2023-05-17T12:50:26.670Z,23.10
2023-05-17T12:52:33.283Z,23.10
2023-05-17T12:54:34.985Z,23.10
2023-05-17T12:56:36.619Z,23.10
2023-05-17T12:58:38.229Z,23.10
2023-05-17T13:00:39.804Z,23.20
2023-05-17T13:02:42.486Z,23.20
2023-05-17T13:04:46.489Z,23.20
2023-05-17T13:06:48.324Z,23.20
2023-05-17T13:08:58.122Z,23.20
2023-05-17T13:11:09.845Z,23.20
2023-05-17T13:13:17.904Z,23.20
2023-05-17T13:15:19.541Z,23.20
2023-05-17T13:17:25.535Z,23.20
2023-05-17T13:19:27.270Z,23.20
2023-05-17T13:21:29.085Z,23.20
2023-05-17T13:23:30.743Z,23.10
2023-05-17T13:25:32.415Z,23.20
2023-05-17T13:27:34.036Z,23.20
2023-05-17T13:29:39.997Z,23.20
2023-05-17T13:31:42.908Z,23.20
2023-05-17T13:33:45.229Z,23.20
2023-05-17T13:35:46.978Z,23.20
2023-05-17T13:37:48.589Z,23.20
2023-05-17T13:39:50.626Z,23.20
2023-05-17T13:41:52.466Z,23.20
2023-05-17T13:43:54.172Z,23.10
2023-05-17T13:45:58.935Z,23.20
2023-05-17T13:48:00.682Z,23.20
2023-05-17T13:50:03.939Z,23.20
2023-05-17T13:52:08.898Z,23.20
2023-05-17T13:54:11.554Z,23.20
2023-05-17T13:56:13.227Z,23.20
2023-05-17T13:58:16.708Z,23.20
2023-05-17T14:00:18.537Z,23.20
2023-05-17T14:02:20.184Z,23.20
2023-05-17T14:04:21.857Z,23.20
2023-05-17T14:06:23.647Z,23.20
2023-05-17T14:08:25.689Z,23.20
2023-05-17T14:10:27.574Z,23.20
2023-05-17T14:12:29.336Z,23.20
2023-05-17T14:14:31.029Z,23.20
2023-05-17T14:16:32.734Z,23.20
2023-05-17T14:18:34.526Z,23.20
2023-05-17T14:20:36.216Z,23.20
2023-05-17T14:22:37.993Z,23.20
2023-05-17T14:24:39.556Z,23.10
2023-05-17T14:26:41.840Z,23.20
2023-05-17T14:28:43.729Z,23.20
2023-05-17T14:30:45.593Z,23.20
2023-05-17T14:32:47.369Z,23.20
2023-05-17T14:34:49.053Z,23.10
2023-05-17T14:36:51.326Z,23.20
2023-05-17T14:38:52.930Z,23.20
2023-05-17T14:40:54.519Z,23.20
2023-05-17T14:42:56.653Z,23.20
2023-05-17T14:44:58.307Z,23.20
2023-05-17T14:46:59.995Z,23.20
2023-05-17T14:49:01.658Z,23.20
2023-05-17T14:51:03.826Z,23.20
2023-05-17T14:53:05.452Z,23.20
2023-05-17T14:55:08.632Z,23.20
2023-05-17T14:57:10.541Z,23.20
2023-05-17T14:59:12.505Z,23.20
2023-05-17T15:01:15.311Z,23.20
2023-05-17T15:03:21.847Z,23.20
2023-05-17T15:05:24.444Z,23.10
2023-05-17T15:07:26.628Z,23.20
2023-05-17T15:09:30.681Z,23.20
2023-05-17T15:11:33.630Z,23.20
2023-05-17T15:13:35.270Z,23.20
2023-05-17T15:15:36.884Z,23.20
2023-05-17T15:17:38.509Z,23.20
2023-05-17T15:19:40.222Z,23.20
2023-05-17T15:21:42.612Z,23.20
2023-05-17T15:23:44.620Z,23.20
2023-05-17T15:25:46.504Z,23.20
2023-05-17T15:27:49.186Z,23.20
2023-05-17T15:29:50.950Z,23.20
2023-05-17T15:31:52.562Z,23.10
2023-05-17T15:33:54.446Z,23.10
2023-05-17T15:35:56.113Z,23.10
2023-05-17T15:37:57.949Z,23.10
2023-05-17T15:40:09.494Z,23.10
2023-05-17T15:42:11.178Z,23.10
2023-05-17T15:44:12.897Z,23.10
2023-05-17T15:46:14.514Z,23.10
2023-05-17T15:48:16.233Z,23.10
2023-05-17T15:50:18.011Z,23.00
2023-05-17T15:52:19.631Z,22.80
2023-05-17T15:54:21.268Z,22.80
2023-05-17T15:56:23.183Z,22.70
2023-05-17T15:58:25.360Z,22.60
2023-05-17T16:00:27.706Z,22.60
2023-05-17T16:02:29.751Z,22.50
2023-05-17T16:04:31.562Z,22.50
2023-05-17T16:06:35.957Z,22.40
2023-05-17T16:08:37.886Z,22.30
2023-05-17T16:10:39.562Z,22.30
2023-05-17T16:12:41.250Z,22.30
2023-05-17T16:14:44.129Z,22.30
2023-05-17T16:16:45.723Z,22.20
2023-05-17T16:18:47.558Z,22.20
2023-05-17T16:20:56.840Z,22.10
2023-05-17T16:22:58.487Z,22.10
2023-05-17T16:25:00.581Z,22.10
2023-05-17T16:27:03.825Z,22.10
2023-05-17T16:29:06.952Z,22.10
2023-05-17T16:31:08.714Z,22.00
2023-05-17T16:33:10.569Z,22.00
2023-05-17T16:35:12.698Z,22.00
2023-05-17T16:37:14.633Z,22.10
2023-05-17T16:39:16.258Z,22.00
2023-05-17T16:41:17.867Z,22.00
2023-05-17T16:43:19.494Z,21.90
2023-05-17T16:45:21.224Z,21.90
2023-05-17T16:47:26.141Z,21.90
2023-05-17T16:49:28.962Z,21.90
2023-05-17T16:51:31.308Z,21.90
2023-05-17T16:53:32.930Z,21.90
2023-05-17T16:55:36.330Z,21.90
2023-05-17T16:57:37.967Z,21.90
2023-05-17T16:59:39.550Z,21.90
2023-05-17T17:01:41.450Z,21.90
2023-05-17T17:03:43.262Z,21.90
2023-05-17T17:05:45.208Z,21.80
2023-05-17T17:07:47.325Z,21.80
2023-05-17T17:09:48.916Z,21.80
2023-05-17T17:11:50.574Z,21.80
2023-05-17T17:13:52.678Z,21.80
2023-05-17T17:15:54.655Z,21.80
2023-05-17T17:17:56.426Z,21.80
2023-05-17T17:19:58.452Z,21.90
2023-05-17T17:22:00.138Z,22.00
2023-05-17T17:24:03.089Z,22.00
2023-05-17T17:26:04.681Z,22.10
2023-05-17T17:28:06.455Z,22.20
2023-05-17T17:30:08.276Z,22.30
2023-05-17T17:32:10.279Z,22.40
2023-05-17T17:34:11.894Z,22.40
2023-05-17T17:36:13.514Z,22.50
2023-05-17T17:38:15.206Z,22.60
2023-05-17T17:40:16.837Z,22.60
2023-05-17T17:42:18.950Z,22.70
2023-05-17T17:44:20.595Z,22.70
2023-05-17T17:46:22.207Z,22.70
2023-05-17T17:48:24.177Z,22.70
2023-05-17T17:50:25.856Z,22.80
2023-05-17T17:52:27.496Z,22.80
2023-05-17T17:54:29.129Z,22.80
2023-05-17T17:56:32.616Z,22.80
2023-05-17T17:58:34.359Z,22.80
2023-05-17T18:00:36.032Z,22.80
2023-05-17T18:02:37.774Z,22.80
2023-05-17T18:04:40.469Z,22.80
2023-05-17T18:06:43.660Z,22.80
2023-05-17T18:08:45.514Z,22.80
2023-05-17T18:10:47.107Z,22.80
2023-05-17T18:12:50.942Z,22.80
2023-05-17T18:14:53.846Z,22.90
2023-05-17T18:16:55.670Z,22.90
2023-05-17T18:18:57.369Z,22.90
2023-05-17T18:20:59.080Z,22.90
2023-05-17T18:23:00.915Z,22.90
2023-05-17T18:25:02.652Z,22.90
2023-05-17T18:27:04.418Z,22.90
2023-05-17T18:29:05.990Z,22.90
2023-05-17T18:31:07.562Z,22.90
2023-05-17T18:33:09.355Z,22.90
2023-05-17T18:35:11.086Z,22.90
2023-05-17T18:37:12.723Z,22.90
2023-05-17T18:39:14.437Z,22.90
2023-05-17T18:41:16.086Z,22.90
2023-05-17T18:43:17.681Z,22.90
2023-05-17T18:45:19.727Z,23.00
2023-05-17T18:47:23.394Z,23.00
2023-05-17T18:49:26.453Z,23.00
2023-05-17T18:51:28.854Z,23.00
2023-05-17T18:53:30.708Z,23.00
2023-05-17T18:55:32.276Z,23.00
2023-05-17T18:57:33.899Z,23.00
2023-05-17T18:59:35.514Z,22.90
2023-05-17T19:01:37.175Z,23.00
2023-05-17T19:03:38.757Z,23.00
2023-05-17T19:05:40.530Z,23.00
2023-05-17T19:07:42.194Z,23.00
2023-05-17T19:09:43.846Z,23.00
2023-05-17T19:11:45.658Z,23.10
2023-05-17T19:13:47.387Z,23.10
2023-05-17T19:15:49.335Z,23.10
2023-05-17T19:17:51.107Z,23.10
2023-05-17T19:19:52.855Z,23.10
2023-05-17T19:21:54.485Z,23.10
2023-05-17T19:23:56.141Z,23.00
2023-05-17T19:25:58.270Z,22.90
2023-05-17T19:27:59.894Z,22.80
2023-05-17T19:30:01.539Z,22.70
